sensor_id;sensor_type;location;lat;lon;timestamp;P1;durP1;ratioP1;P2;durP2;ratioP2
14516;SDS011;7344;50.864;4.362;2024-03-23T00:54:08;13.13;;;5.20;;
14516;SDS011;7344;50.864;4.362;2024-03-23T00:56:33;14.07;;;5.60;;
14516;SDS011;7344;50.864;4.362;2024-03-23T00:58:59;11.07;;;4.77;;
14516;SDS011;7344;50.864;4.362;2024-03-23T01:01:25;12.70;;;5.20;;
14516;SDS011;7344;50.864;4.362;2024-03-23T01:03:50;8.97;;;5.03;;
14516;SDS011;7344;50.864;4.362;2024-03-23T01:06:16;12.90;;;4.80;;
14516;SDS011;7344;50.864;4.362;2024-03-23T01:08:41;15.03;;;4.83;;
14516;SDS011;7344;50.864;4.362;2024-03-23T01:11:07;12.67;;;4.50;;
14516;SDS011;7344;50.864;4.362;2024-03-23T01:13:33;12.10;;;5.03;;
14516;SDS011;7344;50.864;4.362;2024-03-23T01:15:58;11.37;;;4.80;;
14516;SDS011;7344;50.864;4.362;2024-03-23T01:18:24;17.27;;;4.87;;
14516;SDS011;7344;50.864;4.362;2024-03-23T01:20:51;12.10;;;4.50;;
14516;SDS011;7344;50.864;4.362;2024-03-23T01:23:17;13.87;;;4.60;;
14516;SDS011;7344;50.864;4.362;2024-03-23T01:25:42;12.17;;;4.87;;
14516;SDS011;7344;50.864;4.362;2024-03-23T01:28:08;15.93;;;5.07;;
14516;SDS011;7344;50.864;4.362;2024-03-23T01:30:34;11.80;;;5.13;;
14516;SDS011;7344;50.864;4.362;2024-03-23T01:33:00;11.83;;;5.80;;
14516;SDS011;7344;50.864;4.362;2024-03-23T01:35:25;14.80;;;5.67;;
14516;SDS011;7344;50.864;4.362;2024-03-23T01:37:52;18.13;;;6.70;;
14516;SDS011;7344;50.864;4.362;2024-03-23T01:40:17;14.40;;;6.63;;
14516;SDS011;7344;50.864;4.362;2024-03-23T01:42:54;11.67;;;6.80;;
14516;SDS011;7344;50.864;4.362;2024-03-23T01:45:21;14.50;;;6.67;;
14516;SDS011;7344;50.864;4.362;2024-03-23T01:47:46;13.63;;;6.67;;
14516;SDS011;7344;50.864;4.362;2024-03-23T01:50:13;14.53;;;7.03;;
14516;SDS011;7344;50.864;4.362;2024-03-23T01:52:38;13.17;;;7.30;;
14516;SDS011;7344;50.864;4.362;2024-03-23T01:55:04;14.57;;;6.97;;
14516;SDS011;7344;50.864;4.362;2024-03-23T01:57:30;13.00;;;7.03;;
14516;SDS011;7344;50.864;4.362;2024-03-23T01:59:56;12.40;;;6.97;;
14516;SDS011;7344;50.864;4.362;2024-03-23T02:02:21;15.53;;;7.17;;
14516;SDS011;7344;50.864;4.362;2024-03-23T02:04:47;15.27;;;7.67;;
14516;SDS011;7344;50.864;4.362;2024-03-23T02:07:12;21.33;;;8.33;;
14516;SDS011;7344;50.864;4.362;2024-03-23T02:09:38;16.90;;;8.33;;
14516;SDS011;7344;50.864;4.362;2024-03-23T02:12:04;14.43;;;7.83;;
14516;SDS011;7344;50.864;4.362;2024-03-23T02:14:30;15.80;;;7.53;;
14516;SDS011;7344;50.864;4.362;2024-03-23T02:16:57;13.33;;;8.33;;
14516;SDS011;7344;50.864;4.362;2024-03-23T02:19:23;16.77;;;8.10;;
14516;SDS011;7344;50.864;4.362;2024-03-23T02:21:49;19.23;;;8.67;;
14516;SDS011;7344;50.864;4.362;2024-03-23T02:24:14;23.63;;;9.10;;
14516;SDS011;7344;50.864;4.362;2024-03-23T02:26:40;19.73;;;9.67;;
14516;SDS011;7344;50.864;4.362;2024-03-23T02:29:05;19.83;;;9.60;;
14516;SDS011;7344;50.864;4.362;2024-03-23T02:31:31;19.83;;;9.60;;
14516;SDS011;7344;50.864;4.362;2024-03-23T02:33:57;16.83;;;10.10;;
14516;SDS011;7344;50.864;4.362;2024-03-23T02:36:22;14.90;;;9.30;;
14516;SDS011;7344;50.864;4.362;2024-03-23T02:38:48;20.70;;;10.13;;
14516;SDS011;7344;50.864;4.362;2024-03-23T02:41:13;21.03;;;10.07;;
14516;SDS011;7344;50.864;4.362;2024-03-23T02:43:39;25.97;;;12.40;;
14516;SDS011;7344;50.864;4.362;2024-03-23T02:46:05;19.77;;;10.50;;
14516;SDS011;7344;50.864;4.362;2024-03-23T02:48:30;31.80;;;10.63;;
14516;SDS011;7344;50.864;4.362;2024-03-23T02:50:56;19.93;;;10.20;;
14516;SDS011;7344;50.864;4.362;2024-03-23T02:53:22;29.03;;;11.20;;
14516;SDS011;7344;50.864;4.362;2024-03-23T02:55:47;23.33;;;10.03;;
14516;SDS011;7344;50.864;4.362;2024-03-23T02:58:13;29.30;;;10.77;;
14516;SDS011;7344;50.864;4.362;2024-03-23T03:00:39;23.03;;;11.00;;
14516;SDS011;7344;50.864;4.362;2024-03-23T03:03:05;23.10;;;11.40;;
14516;SDS011;7344;50.864;4.362;2024-03-23T03:05:32;24.50;;;10.90;;
14516;SDS011;7344;50.864;4.362;2024-03-23T03:07:57;29.73;;;11.57;;
14516;SDS011;7344;50.864;4.362;2024-03-23T03:10:23;24.37;;;11.37;;
14516;SDS011;7344;50.864;4.362;2024-03-23T03:12:49;24.27;;;11.43;;
14516;SDS011;7344;50.864;4.362;2024-03-23T03:15:14;27.00;;;11.27;;
14516;SDS011;7344;50.864;4.362;2024-03-23T03:17:40;21.17;;;10.87;;
14516;SDS011;7344;50.864;4.362;2024-03-23T03:20:05;20.83;;;11.70;;
14516;SDS011;7344;50.864;4.362;2024-03-23T03:22:31;26.87;;;11.30;;
14516;SDS011;7344;50.864;4.362;2024-03-23T03:24:57;24.63;;;10.53;;
14516;SDS011;7344;50.864;4.362;2024-03-23T03:27:22;21.27;;;10.17;;
14516;SDS011;7344;50.864;4.362;2024-03-23T03:29:48;17.80;;;10.17;;
14516;SDS011;7344;50.864;4.362;2024-03-23T03:32:14;28.83;;;11.27;;
14516;SDS011;7344;50.864;4.362;2024-03-23T03:34:40;24.33;;;10.63;;
14516;SDS011;7344;50.864;4.362;2024-03-23T03:37:05;25.03;;;10.80;;
14516;SDS011;7344;50.864;4.362;2024-03-23T03:39:32;23.13;;;10.67;;
14516;SDS011;7344;50.864;4.362;2024-03-23T03:41:57;24.03;;;10.70;;
14516;SDS011;7344;50.864;4.362;2024-03-23T03:44:23;23.57;;;11.10;;
14516;SDS011;7344;50.864;4.362;2024-03-23T03:46:48;21.50;;;10.53;;
14516;SDS011;7344;50.864;4.362;2024-03-23T03:49:14;24.43;;;11.33;;
14516;SDS011;7344;50.864;4.362;2024-03-23T03:51:40;25.90;;;12.07;;
14516;SDS011;7344;50.864;4.362;2024-03-23T03:54:05;21.13;;;10.87;;
14516;SDS011;7344;50.864;4.362;2024-03-23T03:56:31;21.90;;;11.53;;
14516;SDS011;7344;50.864;4.362;2024-03-23T03:58:57;26.03;;;11.53;;
14516;SDS011;7344;50.864;4.362;2024-03-23T04:01:22;23.83;;;11.43;;
14516;SDS011;7344;50.864;4.362;2024-03-23T04:03:48;20.30;;;10.50;;
14516;SDS011;7344;50.864;4.362;2024-03-23T04:06:20;19.20;;;11.70;;
14516;SDS011;7344;50.864;4.362;2024-03-23T04:08:45;22.83;;;11.37;;
14516;SDS011;7344;50.864;4.362;2024-03-23T04:11:11;22.23;;;10.20;;
14516;SDS011;7344;50.864;4.362;2024-03-23T04:13:36;23.97;;;10.27;;
14516;SDS011;7344;50.864;4.362;2024-03-23T04:16:02;18.73;;;10.10;;
14516;SDS011;7344;50.864;4.362;2024-03-23T04:18:28;26.90;;;9.83;;
14516;SDS011;7344;50.864;4.362;2024-03-23T04:20:53;19.03;;;9.43;;
14516;SDS011;7344;50.864;4.362;2024-03-23T04:23:19;18.10;;;9.23;;
14516;SDS011;7344;50.864;4.362;2024-03-23T04:25:46;19.23;;;8.83;;
14516;SDS011;7344;50.864;4.362;2024-03-23T04:28:11;18.00;;;8.63;;
14516;SDS011;7344;50.864;4.362;2024-03-23T04:30:37;18.50;;;8.10;;
14516;SDS011;7344;50.864;4.362;2024-03-23T04:33:02;19.00;;;7.77;;
14516;SDS011;7344;50.864;4.362;2024-03-23T04:35:28;18.33;;;7.50;;
14516;SDS011;7344;50.864;4.362;2024-03-23T04:37:54;17.27;;;7.87;;
14516;SDS011;7344;50.864;4.362;2024-03-23T04:40:20;16.33;;;7.43;;
14516;SDS011;7344;50.864;4.362;2024-03-23T04:42:46;17.13;;;7.77;;
14516;SDS011;7344;50.864;4.362;2024-03-23T04:45:12;13.77;;;7.37;;
14516;SDS011;7344;50.864;4.362;2024-03-23T04:47:37;22.37;;;7.67;;
14516;SDS011;7344;50.864;4.362;2024-03-23T04:50:03;17.23;;;7.03;;
14516;SDS011;7344;50.864;4.362;2024-03-23T04:52:30;15.73;;;7.03;;
14516;SDS011;7344;50.864;4.362;2024-03-23T04:54:55;13.47;;;6.80;;
14516;SDS011;7344;50.864;4.362;2024-03-23T04:57:21;11.73;;;6.80;;
14516;SDS011;7344;50.864;4.362;2024-03-23T04:59:47;15.50;;;6.60;;
14516;SDS011;7344;50.864;4.362;2024-03-23T05:02:13;11.70;;;6.70;;
14516;SDS011;7344;50.864;4.362;2024-03-23T05:04:39;15.70;;;7.30;;
14516;SDS011;7344;50.864;4.362;2024-03-23T05:07:05;13.87;;;6.97;;
14516;SDS011;7344;50.864;4.362;2024-03-23T05:09:31;15.80;;;7.10;;
14516;SDS011;7344;50.864;4.362;2024-03-23T05:11:58;18.00;;;7.37;;
14516;SDS011;7344;50.864;4.362;2024-03-23T05:14:27;15.97;;;7.17;;
14516;SDS011;7344;50.864;4.362;2024-03-23T05:16:53;18.80;;;7.40;;
14516;SDS011;7344;50.864;4.362;2024-03-23T05:19:19;13.27;;;7.13;;
14516;SDS011;7344;50.864;4.362;2024-03-23T05:21:44;17.30;;;7.80;;
14516;SDS011;7344;50.864;4.362;2024-03-23T05:24:10;14.70;;;7.60;;
14516;SDS011;7344;50.864;4.362;2024-03-23T05:26:37;15.07;;;7.27;;
14516;SDS011;7344;50.864;4.362;2024-03-23T05:29:02;17.63;;;7.83;;
14516;SDS011;7344;50.864;4.362;2024-03-23T05:31:29;15.93;;;7.87;;
14516;SDS011;7344;50.864;4.362;2024-03-23T05:33:55;16.77;;;7.00;;
14516;SDS011;7344;50.864;4.362;2024-03-23T05:36:21;19.20;;;7.47;;
14516;SDS011;7344;50.864;4.362;2024-03-23T05:38:48;18.37;;;7.40;;
14516;SDS011;7344;50.864;4.362;2024-03-23T05:41:14;12.03;;;6.60;;
14516;SDS011;7344;50.864;4.362;2024-03-23T05:43:39;15.43;;;7.03;;
14516;SDS011;7344;50.864;4.362;2024-03-23T05:46:05;14.37;;;6.57;;
14516;SDS011;7344;50.864;4.362;2024-03-23T05:48:31;16.77;;;6.67;;
14516;SDS011;7344;50.864;4.362;2024-03-23T05:50:57;15.57;;;6.33;;
14516;SDS011;7344;50.864;4.362;2024-03-23T05:53:23;13.67;;;5.33;;
14516;SDS011;7344;50.864;4.362;2024-03-23T05:55:49;12.53;;;5.37;;
14516;SDS011;7344;50.864;4.362;2024-03-23T05:58:16;13.67;;;5.67;;
14516;SDS011;7344;50.864;4.362;2024-03-23T06:00:42;11.07;;;5.10;;
14516;SDS011;7344;50.864;4.362;2024-03-23T06:03:08;13.93;;;5.17;;
14516;SDS011;7344;50.864;4.362;2024-03-23T06:05:35;13.40;;;4.40;;
14516;SDS011;7344;50.864;4.362;2024-03-23T06:08:01;14.00;;;5.17;;
14516;SDS011;7344;50.864;4.362;2024-03-23T06:10:26;9.83;;;4.13;;
14516;SDS011;7344;50.864;4.362;2024-03-23T06:12:52;10.67;;;3.63;;
14516;SDS011;7344;50.864;4.362;2024-03-23T06:15:18;12.37;;;3.90;;
14516;SDS011;7344;50.864;4.362;2024-03-23T06:17:44;15.17;;;3.50;;
14516;SDS011;7344;50.864;4.362;2024-03-23T06:20:10;13.37;;;3.90;;
14516;SDS011;7344;50.864;4.362;2024-03-23T06:22:36;17.80;;;4.30;;
14516;SDS011;7344;50.864;4.362;2024-03-23T06:25:02;9.90;;;3.60;;
14516;SDS011;7344;50.864;4.362;2024-03-23T06:27:28;10.87;;;3.77;;
14516;SDS011;7344;50.864;4.362;2024-03-23T06:29:54;15.67;;;3.60;;
14516;SDS011;7344;50.864;4.362;2024-03-23T06:32:20;14.77;;;3.47;;
14516;SDS011;7344;50.864;4.362;2024-03-23T06:34:45;13.07;;;3.73;;
14516;SDS011;7344;50.864;4.362;2024-03-23T06:37:11;10.27;;;3.70;;
14516;SDS011;7344;50.864;4.362;2024-03-23T06:39:37;11.07;;;3.70;;
14516;SDS011;7344;50.864;4.362;2024-03-23T06:42:03;11.63;;;3.03;;
14516;SDS011;7344;50.864;4.362;2024-03-23T06:44:29;16.03;;;3.33;;
14516;SDS011;7344;50.864;4.362;2024-03-23T06:46:55;14.80;;;3.33;;
14516;SDS011;7344;50.864;4.362;2024-03-23T06:49:21;9.23;;;3.13;;
14516;SDS011;7344;50.864;4.362;2024-03-23T06:51:47;10.93;;;4.00;;
14516;SDS011;7344;50.864;4.362;2024-03-23T06:54:13;12.40;;;3.17;;
14516;SDS011;7344;50.864;4.362;2024-03-23T06:56:39;10.80;;;3.63;;
14516;SDS011;7344;50.864;4.362;2024-03-23T06:59:05;15.00;;;3.30;;
14516;SDS011;7344;50.864;4.362;2024-03-23T07:01:31;15.60;;;3.87;;
14516;SDS011;7344;50.864;4.362;2024-03-23T07:03:57;13.70;;;3.73;;
14516;SDS011;7344;50.864;4.362;2024-03-23T07:06:23;11.40;;;3.37;;
14516;SDS011;7344;50.864;4.362;2024-03-23T07:08:48;5.87;;;3.17;;
14516;SDS011;7344;50.864;4.362;2024-03-23T07:11:20;11.87;;;3.73;;
14516;SDS011;7344;50.864;4.362;2024-03-23T07:13:46;8.93;;;3.50;;
14516;SDS011;7344;50.864;4.362;2024-03-23T07:16:15;7.43;;;2.87;;
14516;SDS011;7344;50.864;4.362;2024-03-23T07:18:41;7.93;;;3.00;;
14516;SDS011;7344;50.864;4.362;2024-03-23T07:21:07;4.80;;;2.13;;
14516;SDS011;7344;50.864;4.362;2024-03-23T07:23:33;5.17;;;2.20;;
14516;SDS011;7344;50.864;4.362;2024-03-23T07:25:59;4.37;;;2.40;;
14516;SDS011;7344;50.864;4.362;2024-03-23T07:28:26;4.97;;;2.63;;
14516;SDS011;7344;50.864;4.362;2024-03-23T07:31:01;10.37;;;3.10;;
14516;SDS011;7344;50.864;4.362;2024-03-23T07:33:27;7.83;;;3.43;;
14516;SDS011;7344;50.864;4.362;2024-03-23T07:35:52;11.37;;;3.40;;
14516;SDS011;7344;50.864;4.362;2024-03-23T07:38:18;10.50;;;3.30;;
14516;SDS011;7344;50.864;4.362;2024-03-23T07:40:43;7.07;;;3.30;;
14516;SDS011;7344;50.864;4.362;2024-03-23T07:43:09;7.13;;;3.17;;
14516;SDS011;7344;50.864;4.362;2024-03-23T07:45:34;9.97;;;3.30;;
14516;SDS011;7344;50.864;4.362;2024-03-23T07:48:00;9.10;;;3.17;;
14516;SDS011;7344;50.864;4.362;2024-03-23T07:50:25;8.87;;;3.40;;
14516;SDS011;7344;50.864;4.362;2024-03-23T07:52:51;10.88;;;3.53;;
14516;SDS011;7344;50.864;4.362;2024-03-23T07:55:16;11.82;;;3.55;;
14516;SDS011;7344;50.864;4.362;2024-03-23T07:57:42;11.57;;;3.53;;
14516;SDS011;7344;50.864;4.362;2024-03-23T08:00:08;9.95;;;3.75;;
14516;SDS011;7344;50.864;4.362;2024-03-23T08:02:34;8.32;;;3.25;;
14516;SDS011;7344;50.864;4.362;2024-03-23T08:04:59;10.88;;;3.30;;
14516;SDS011;7344;50.864;4.362;2024-03-23T08:07:25;10.07;;;3.50;;
14516;SDS011;7344;50.864;4.362;2024-03-23T08:09:50;7.18;;;3.10;;
14516;SDS011;7344;50.864;4.362;2024-03-23T08:12:16;7.85;;;3.17;;
14516;SDS011;7344;50.864;4.362;2024-03-23T08:14:41;8.53;;;3.33;;
14516;SDS011;7344;50.864;4.362;2024-03-23T08:17:07;10.43;;;3.53;;
14516;SDS011;7344;50.864;4.362;2024-03-23T08:19:33;10.37;;;3.20;;
14516;SDS011;7344;50.864;4.362;2024-03-23T08:21:58;9.80;;;3.30;;
14516;SDS011;7344;50.864;4.362;2024-03-23T08:24:24;10.20;;;3.47;;
14516;SDS011;7344;50.864;4.362;2024-03-23T08:26:49;13.63;;;3.33;;
14516;SDS011;7344;50.864;4.362;2024-03-23T08:29:15;13.93;;;4.20;;
14516;SDS011;7344;50.864;4.362;2024-03-23T08:31:41;10.90;;;3.67;;
14516;SDS011;7344;50.864;4.362;2024-03-23T08:34:06;13.40;;;3.20;;
14516;SDS011;7344;50.864;4.362;2024-03-23T08:36:32;8.17;;;3.40;;
14516;SDS011;7344;50.864;4.362;2024-03-23T08:38:57;12.77;;;3.90;;
14516;SDS011;7344;50.864;4.362;2024-03-23T08:41:23;7.73;;;2.63;;
14516;SDS011;7344;50.864;4.362;2024-03-23T08:43:48;8.93;;;2.87;;
14516;SDS011;7344;50.864;4.362;2024-03-23T08:46:15;8.53;;;2.87;;
14516;SDS011;7344;50.864;4.362;2024-03-23T08:48:42;8.40;;;3.00;;
14516;SDS011;7344;50.864;4.362;2024-03-23T08:51:10;7.63;;;2.80;;
14516;SDS011;7344;50.864;4.362;2024-03-23T08:53:37;17.37;;;3.30;;
14516;SDS011;7344;50.864;4.362;2024-03-23T08:56:04;6.30;;;3.07;;
14516;SDS011;7344;50.864;4.362;2024-03-23T08:58:31;10.63;;;2.80;;
14516;SDS011;7344;50.864;4.362;2024-03-23T09:01:07;12.47;;;3.33;;
14516;SDS011;7344;50.864;4.362;2024-03-23T09:03:34;11.93;;;3.00;;
14516;SDS011;7344;50.864;4.362;2024-03-23T09:06:00;5.93;;;2.67;;
14516;SDS011;7344;50.864;4.362;2024-03-23T09:08:27;10.83;;;2.50;;
14516;SDS011;7344;50.864;4.362;2024-03-23T09:10:53;6.23;;;2.40;;
14516;SDS011;7344;50.864;4.362;2024-03-23T09:13:19;5.13;;;2.50;;
14516;SDS011;7344;50.864;4.362;2024-03-23T09:15:51;6.63;;;2.67;;
14516;SDS011;7344;50.864;4.362;2024-03-23T09:18:21;6.27;;;2.63;;
14516;SDS011;7344;50.864;4.362;2024-03-23T09:20:47;9.73;;;3.00;;
14516;SDS011;7344;50.864;4.362;2024-03-23T09:23:12;4.67;;;2.43;;
14516;SDS011;7344;50.864;4.362;2024-03-23T09:25:38;8.30;;;2.77;;
14516;SDS011;7344;50.864;4.362;2024-03-23T09:28:05;4.77;;;2.50;;
14516;SDS011;7344;50.864;4.362;2024-03-23T09:30:32;4.90;;;2.40;;
14516;SDS011;7344;50.864;4.362;2024-03-23T09:32:58;8.03;;;2.50;;
14516;SDS011;7344;50.864;4.362;2024-03-23T09:35:24;9.97;;;2.57;;
14516;SDS011;7344;50.864;4.362;2024-03-23T09:37:49;8.73;;;2.73;;
14516;SDS011;7344;50.864;4.362;2024-03-23T09:40:15;4.78;;;2.55;;
14516;SDS011;7344;50.864;4.362;2024-03-23T09:42:40;5.55;;;2.63;;
14516;SDS011;7344;50.864;4.362;2024-03-23T09:45:15;4.72;;;2.42;;
14516;SDS011;7344;50.864;4.362;2024-03-23T09:47:45;6.68;;;2.78;;
14516;SDS011;7344;50.864;4.362;2024-03-23T09:50:12;4.00;;;2.80;;
14516;SDS011;7344;50.864;4.362;2024-03-23T09:52:38;5.57;;;2.80;;
14516;SDS011;7344;50.864;4.362;2024-03-23T09:55:04;4.80;;;2.70;;
14516;SDS011;7344;50.864;4.362;2024-03-23T09:57:30;5.17;;;2.53;;
14516;SDS011;7344;50.864;4.362;2024-03-23T09:59:55;6.57;;;3.20;;
14516;SDS011;7344;50.864;4.362;2024-03-23T10:02:22;4.17;;;3.00;;
14516;SDS011;7344;50.864;4.362;2024-03-23T10:04:49;5.53;;;2.50;;
14516;SDS011;7344;50.864;4.362;2024-03-23T10:07:15;6.00;;;3.00;;
14516;SDS011;7344;50.864;4.362;2024-03-23T10:09:43;6.37;;;2.80;;
14516;SDS011;7344;50.864;4.362;2024-03-23T10:12:10;5.27;;;2.73;;
14516;SDS011;7344;50.864;4.362;2024-03-23T10:14:37;7.07;;;3.47;;
14516;SDS011;7344;50.864;4.362;2024-03-23T10:19:47;3.73;;;1.97;;
14516;SDS011;7344;50.864;4.362;2024-03-23T10:22:23;8.60;;;2.40;;
14516;SDS011;7344;50.864;4.362;2024-03-23T10:24:49;4.37;;;2.17;;
14516;SDS011;7344;50.864;4.362;2024-03-23T10:27:16;6.27;;;2.40;;
14516;SDS011;7344;50.864;4.362;2024-03-23T10:29:44;5.53;;;2.40;;
14516;SDS011;7344;50.864;4.362;2024-03-23T10:32:13;8.03;;;2.70;;
14516;SDS011;7344;50.864;4.362;2024-03-23T10:34:40;5.90;;;1.97;;
14516;SDS011;7344;50.864;4.362;2024-03-23T10:37:06;5.37;;;2.20;;
14516;SDS011;7344;50.864;4.362;2024-03-23T10:39:33;6.33;;;2.80;;
14516;SDS011;7344;50.864;4.362;2024-03-23T10:42:03;7.93;;;2.40;;
14516;SDS011;7344;50.864;4.362;2024-03-23T10:44:30;5.07;;;2.40;;
14516;SDS011;7344;50.864;4.362;2024-03-23T10:46:57;5.50;;;1.80;;
14516;SDS011;7344;50.864;4.362;2024-03-23T10:49:29;5.30;;;1.88;;
14516;SDS011;7344;50.864;4.362;2024-03-23T10:52:05;4.93;;;1.83;;
14516;SDS011;7344;50.864;4.362;2024-03-23T10:54:31;3.22;;;1.70;;
14516;SDS011;7344;50.864;4.362;2024-03-23T10:59:42;3.63;;;1.50;;
14516;SDS011;7344;50.864;4.362;2024-03-23T11:02:18;4.28;;;1.80;;
14516;SDS011;7344;50.864;4.362;2024-03-23T11:04:44;4.75;;;1.73;;
14516;SDS011;7344;50.864;4.362;2024-03-23T11:09:57;3.33;;;1.60;;
14516;SDS011;7344;50.864;4.362;2024-03-23T11:15:00;1.85;;;1.30;;
14516;SDS011;7344;50.864;4.362;2024-03-23T11:17:28;3.50;;;1.65;;
14516;SDS011;7344;50.864;4.362;2024-03-23T11:19:54;1.55;;;1.10;;
14516;SDS011;7344;50.864;4.362;2024-03-23T11:25:14;3.75;;;1.27;;
14516;SDS011;7344;50.864;4.362;2024-03-23T11:27:47;3.20;;;1.40;;
14516;SDS011;7344;50.864;4.362;2024-03-23T11:30:14;3.70;;;1.40;;
14516;SDS011;7344;50.864;4.362;2024-03-23T11:32:41;4.75;;;1.65;;
14516;SDS011;7344;50.864;4.362;2024-03-23T11:35:08;4.28;;;1.67;;
14516;SDS011;7344;50.864;4.362;2024-03-23T11:37:37;3.38;;;1.50;;
14516;SDS011;7344;50.864;4.362;2024-03-23T11:42:59;3.83;;;1.40;;
14516;SDS011;7344;50.864;4.362;2024-03-23T11:45:26;4.00;;;1.60;;
14516;SDS011;7344;50.864;4.362;2024-03-23T11:50:31;6.63;;;2.00;;
14516;SDS011;7344;50.864;4.362;2024-03-23T11:53:09;6.77;;;1.67;;
14516;SDS011;7344;50.864;4.362;2024-03-23T11:58:10;5.47;;;1.73;;
14516;SDS011;7344;50.864;4.362;2024-03-23T12:00:37;3.17;;;1.73;;
14516;SDS011;7344;50.864;4.362;2024-03-23T12:03:03;5.25;;;1.67;;
14516;SDS011;7344;50.864;4.362;2024-03-23T12:05:29;7.43;;;2.05;;
14516;SDS011;7344;50.864;4.362;2024-03-23T12:08:14;5.28;;;1.90;;
14516;SDS011;7344;50.864;4.362;2024-03-23T12:10:44;6.10;;;1.90;;
14516;SDS011;7344;50.864;4.362;2024-03-23T12:13:12;4.37;;;1.67;;
14516;SDS011;7344;50.864;4.362;2024-03-23T12:15:40;3.27;;;1.70;;
14516;SDS011;7344;50.864;4.362;2024-03-23T12:18:06;2.23;;;1.33;;
14516;SDS011;7344;50.864;4.362;2024-03-23T12:20:33;3.77;;;1.80;;
14516;SDS011;7344;50.864;4.362;2024-03-23T12:23:08;5.90;;;1.37;;
14516;SDS011;7344;50.864;4.362;2024-03-23T12:25:40;7.83;;;2.00;;
14516;SDS011;7344;50.864;4.362;2024-03-23T12:28:06;4.33;;;1.43;;
14516;SDS011;7344;50.864;4.362;2024-03-23T12:30:35;2.33;;;1.07;;
14516;SDS011;7344;50.864;4.362;2024-03-23T12:33:04;2.57;;;1.07;;
14516;SDS011;7344;50.864;4.362;2024-03-23T12:35:30;3.00;;;1.97;;
14516;SDS011;7344;50.864;4.362;2024-03-23T12:37:56;4.90;;;1.60;;
14516;SDS011;7344;50.864;4.362;2024-03-23T12:40:21;3.37;;;1.43;;
14516;SDS011;7344;50.864;4.362;2024-03-23T12:42:47;5.47;;;2.17;;
14516;SDS011;7344;50.864;4.362;2024-03-23T12:45:13;2.80;;;1.40;;
14516;SDS011;7344;50.864;4.362;2024-03-23T12:47:38;3.03;;;1.53;;
14516;SDS011;7344;50.864;4.362;2024-03-23T12:50:04;6.63;;;1.77;;
14516;SDS011;7344;50.864;4.362;2024-03-23T12:52:31;3.37;;;1.70;;
14516;SDS011;7344;50.864;4.362;2024-03-23T12:54:57;2.70;;;1.50;;
14516;SDS011;7344;50.864;4.362;2024-03-23T12:57:23;2.97;;;1.40;;
14516;SDS011;7344;50.864;4.362;2024-03-23T12:59:50;4.57;;;1.60;;
14516;SDS011;7344;50.864;4.362;2024-03-23T13:02:22;3.70;;;1.50;;
14516;SDS011;7344;50.864;4.362;2024-03-23T13:04:51;8.27;;;1.60;;
14516;SDS011;7344;50.864;4.362;2024-03-23T13:07:17;5.77;;;1.53;;
14516;SDS011;7344;50.864;4.362;2024-03-23T13:09:43;4.80;;;1.20;;
14516;SDS011;7344;50.864;4.362;2024-03-23T13:12:09;4.80;;;1.60;;
14516;SDS011;7344;50.864;4.362;2024-03-23T13:14:37;2.67;;;1.50;;
14516;SDS011;7344;50.864;4.362;2024-03-23T13:17:03;3.23;;;1.27;;
14516;SDS011;7344;50.864;4.362;2024-03-23T13:19:29;4.10;;;1.60;;
14516;SDS011;7344;50.864;4.362;2024-03-23T13:21:56;4.57;;;1.10;;
14516;SDS011;7344;50.864;4.362;2024-03-23T13:24:24;2.90;;;1.33;;
14516;SDS011;7344;50.864;4.362;2024-03-23T13:26:53;4.37;;;1.07;;
14516;SDS011;7344;50.864;4.362;2024-03-23T13:29:19;1.97;;;1.00;;
14516;SDS011;7344;50.864;4.362;2024-03-23T13:31:46;4.43;;;1.50;;
14516;SDS011;7344;50.864;4.362;2024-03-23T13:34:12;2.37;;;1.40;;
14516;SDS011;7344;50.864;4.362;2024-03-23T13:36:40;3.33;;;1.30;;
14516;SDS011;7344;50.864;4.362;2024-03-23T13:39:06;3.87;;;1.50;;
14516;SDS011;7344;50.864;4.362;2024-03-23T13:41:37;1.63;;;1.23;;
14516;SDS011;7344;50.864;4.362;2024-03-23T13:44:10;5.77;;;1.70;;
14516;SDS011;7344;50.864;4.362;2024-03-23T13:46:36;4.30;;;1.43;;
14516;SDS011;7344;50.864;4.362;2024-03-23T13:49:03;5.13;;;1.40;;
14516;SDS011;7344;50.864;4.362;2024-03-23T13:51:29;5.90;;;1.67;;
14516;SDS011;7344;50.864;4.362;2024-03-23T13:53:55;6.73;;;1.57;;
14516;SDS011;7344;50.864;4.362;2024-03-23T13:56:21;3.20;;;1.40;;
14516;SDS011;7344;50.864;4.362;2024-03-23T13:58:50;5.00;;;1.67;;
14516;SDS011;7344;50.864;4.362;2024-03-23T14:01:16;2.97;;;1.47;;
14516;SDS011;7344;50.864;4.362;2024-03-23T14:03:42;5.63;;;1.50;;
14516;SDS011;7344;50.864;4.362;2024-03-23T14:06:08;4.37;;;1.40;;
14516;SDS011;7344;50.864;4.362;2024-03-23T14:08:35;3.27;;;1.40;;
14516;SDS011;7344;50.864;4.362;2024-03-23T14:11:04;4.23;;;1.57;;
14516;SDS011;7344;50.864;4.362;2024-03-23T14:13:36;4.07;;;1.57;;
14516;SDS011;7344;50.864;4.362;2024-03-23T14:16:02;5.70;;;1.93;;
14516;SDS011;7344;50.864;4.362;2024-03-23T14:18:28;3.17;;;1.33;;
14516;SDS011;7344;50.864;4.362;2024-03-23T14:21:00;5.70;;;1.70;;
14516;SDS011;7344;50.864;4.362;2024-03-23T14:23:26;7.37;;;3.30;;
14516;SDS011;7344;50.864;4.362;2024-03-23T14:25:54;2.47;;;1.73;;
14516;SDS011;7344;50.864;4.362;2024-03-23T14:28:21;6.90;;;2.03;;
14516;SDS011;7344;50.864;4.362;2024-03-23T14:30:50;4.70;;;1.63;;
14516;SDS011;7344;50.864;4.362;2024-03-23T14:33:16;4.97;;;1.73;;
14516;SDS011;7344;50.864;4.362;2024-03-23T14:35:43;4.07;;;1.53;;
14516;SDS011;7344;50.864;4.362;2024-03-23T14:38:09;3.30;;;2.20;;
14516;SDS011;7344;50.864;4.362;2024-03-23T14:40:34;4.07;;;1.70;;
14516;SDS011;7344;50.864;4.362;2024-03-23T14:43:00;5.30;;;1.80;;
14516;SDS011;7344;50.864;4.362;2024-03-23T14:45:27;2.60;;;1.40;;
14516;SDS011;7344;50.864;4.362;2024-03-23T14:47:53;3.23;;;1.40;;
14516;SDS011;7344;50.864;4.362;2024-03-23T14:50:19;3.67;;;1.60;;
14516;SDS011;7344;50.864;4.362;2024-03-23T14:52:47;5.00;;;1.60;;
14516;SDS011;7344;50.864;4.362;2024-03-23T14:55:13;5.60;;;1.43;;
14516;SDS011;7344;50.864;4.362;2024-03-23T14:57:39;5.17;;;1.70;;
14516;SDS011;7344;50.864;4.362;2024-03-23T15:00:07;3.83;;;1.50;;
14516;SDS011;7344;50.864;4.362;2024-03-23T15:02:35;5.23;;;2.10;;
14516;SDS011;7344;50.864;4.362;2024-03-23T15:05:04;3.97;;;1.50;;
14516;SDS011;7344;50.864;4.362;2024-03-23T15:07:32;6.07;;;2.00;;
14516;SDS011;7344;50.864;4.362;2024-03-23T15:09:58;10.73;;;1.70;;
14516;SDS011;7344;50.864;4.362;2024-03-23T15:12:23;3.73;;;1.77;;
14516;SDS011;7344;50.864;4.362;2024-03-23T15:14:49;4.83;;;1.77;;
14516;SDS011;7344;50.864;4.362;2024-03-23T15:17:15;5.43;;;1.53;;
14516;SDS011;7344;50.864;4.362;2024-03-23T15:19:40;5.10;;;1.37;;
14516;SDS011;7344;50.864;4.362;2024-03-23T15:22:07;4.17;;;1.90;;
14516;SDS011;7344;50.864;4.362;2024-03-23T15:24:34;5.20;;;1.63;;
14516;SDS011;7344;50.864;4.362;2024-03-23T15:27:00;3.30;;;1.30;;
14516;SDS011;7344;50.864;4.362;2024-03-23T15:29:26;5.23;;;1.80;;
14516;SDS011;7344;50.864;4.362;2024-03-23T15:31:51;4.67;;;1.93;;
14516;SDS011;7344;50.864;4.362;2024-03-23T15:34:17;8.07;;;1.90;;
14516;SDS011;7344;50.864;4.362;2024-03-23T15:36:46;3.60;;;1.50;;
14516;SDS011;7344;50.864;4.362;2024-03-23T15:39:16;5.17;;;1.63;;
14516;SDS011;7344;50.864;4.362;2024-03-23T15:41:45;3.27;;;1.50;;
14516;SDS011;7344;50.864;4.362;2024-03-23T15:44:11;6.27;;;1.70;;
14516;SDS011;7344;50.864;4.362;2024-03-23T15:46:37;2.70;;;1.70;;
14516;SDS011;7344;50.864;4.362;2024-03-23T15:49:02;3.73;;;1.70;;
14516;SDS011;7344;50.864;4.362;2024-03-23T15:51:29;3.93;;;1.97;;
14516;SDS011;7344;50.864;4.362;2024-03-23T15:53:58;4.83;;;1.83;;
14516;SDS011;7344;50.864;4.362;2024-03-23T15:56:24;5.40;;;2.20;;
14516;SDS011;7344;50.864;4.362;2024-03-23T15:58:49;4.90;;;2.13;;
14516;SDS011;7344;50.864;4.362;2024-03-23T16:01:15;6.80;;;2.50;;
14516;SDS011;7344;50.864;4.362;2024-03-23T16:03:41;6.23;;;2.27;;